sensor_id;sensor_type;location;lat;lon;timestamp;P1;durP1;ratioP1;P2;durP2;ratioP2
22298;SDS011;11317;51.072;17.036;2022-07-29T00:00:06;3.28;;;1.73;;
22298;SDS011;11317;51.072;17.036;2022-07-29T00:02:33;3.38;;;1.63;;
22298;SDS011;11317;51.072;17.036;2022-07-29T00:04:59;2.42;;;1.60;;
22298;SDS011;11317;51.072;17.036;2022-07-29T00:07:25;4.75;;;1.50;;
22298;SDS011;11317;51.072;17.036;2022-07-29T00:09:51;3.53;;;1.70;;
22298;SDS011;11317;51.072;17.036;2022-07-29T00:12:20;4.80;;;2.05;;
22298;SDS011;11317;51.072;17.036;2022-07-29T00:14:49;3.70;;;1.77;;
22298;SDS011;11317;51.072;17.036;2022-07-29T00:17:15;2.83;;;1.55;;
22298;SDS011;11317;51.072;17.036;2022-07-29T00:19:41;3.30;;;1.40;;
22298;SDS011;11317;51.072;17.036;2022-07-29T00:22:07;3.28;;;1.50;;
22298;SDS011;11317;51.072;17.036;2022-07-29T00:24:33;4.65;;;1.83;;
22298;SDS011;11317;51.072;17.036;2022-07-29T00:26:59;3.33;;;2.00;;
22298;SDS011;11317;51.072;17.036;2022-07-29T00:29:25;3.72;;;1.33;;
22298;SDS011;11317;51.072;17.036;2022-07-29T00:31:51;2.70;;;2.08;;
22298;SDS011;11317;51.072;17.036;2022-07-29T00:34:17;3.42;;;1.90;;
22298;SDS011;11317;51.072;17.036;2022-07-29T00:37:01;6.55;;;2.03;;
22298;SDS011;11317;51.072;17.036;2022-07-29T00:39:30;2.70;;;1.48;;
22298;SDS011;11317;51.072;17.036;2022-07-29T00:41:56;2.45;;;1.80;;
22298;SDS011;11317;51.072;17.036;2022-07-29T00:44:22;3.22;;;1.90;;
22298;SDS011;11317;51.072;17.036;2022-07-29T00:46:48;3.78;;;1.95;;
22298;SDS011;11317;51.072;17.036;2022-07-29T00:49:14;3.28;;;1.70;;
22298;SDS011;11317;51.072;17.036;2022-07-29T00:51:40;1.65;;;1.50;;
22298;SDS011;11317;51.072;17.036;2022-07-29T00:54:06;3.88;;;1.73;;
22298;SDS011;11317;51.072;17.036;2022-07-29T00:56:32;5.70;;;2.10;;
22298;SDS011;11317;51.072;17.036;2022-07-29T00:58:59;3.45;;;1.85;;
22298;SDS011;11317;51.072;17.036;2022-07-29T01:01:25;2.78;;;1.63;;
22298;SDS011;11317;51.072;17.036;2022-07-29T01:03:52;2.60;;;1.88;;
22298;SDS011;11317;51.072;17.036;2022-07-29T01:06:18;8.20;;;2.17;;
22298;SDS011;11317;51.072;17.036;2022-07-29T01:08:45;1.83;;;1.50;;
22298;SDS011;11317;51.072;17.036;2022-07-29T01:11:12;6.03;;;1.75;;
22298;SDS011;11317;51.072;17.036;2022-07-29T01:13:38;3.22;;;2.05;;
22298;SDS011;11317;51.072;17.036;2022-07-29T01:16:09;7.80;;;2.03;;
22298;SDS011;11317;51.072;17.036;2022-07-29T01:18:39;3.10;;;1.70;;
22298;SDS011;11317;51.072;17.036;2022-07-29T01:26:46;2.10;;;1.60;;
22298;SDS011;11317;51.072;17.036;2022-07-29T01:31:50;5.25;;;1.63;;
22298;SDS011;11317;51.072;17.036;2022-07-29T01:34:23;2.83;;;1.90;;
22298;SDS011;11317;51.072;17.036;2022-07-29T01:37:03;1.85;;;1.50;;
22298;SDS011;11317;51.072;17.036;2022-07-29T01:39:54;3.60;;;2.28;;
22298;SDS011;11317;51.072;17.036;2022-07-29T01:44:57;2.83;;;1.85;;
22298;SDS011;11317;51.072;17.036;2022-07-29T01:47:54;2.95;;;1.80;;
22298;SDS011;11317;51.072;17.036;2022-07-29T01:50:33;1.92;;;1.70;;
22298;SDS011;11317;51.072;17.036;2022-07-29T01:53:09;2.75;;;1.98;;
22298;SDS011;11317;51.072;17.036;2022-07-29T01:55:41;2.30;;;1.90;;
22298;SDS011;11317;51.072;17.036;2022-07-29T01:58:11;2.88;;;1.70;;
22298;SDS011;11317;51.072;17.036;2022-07-29T02:00:38;2.50;;;1.90;;
22298;SDS011;11317;51.072;17.036;2022-07-29T02:03:07;1.88;;;1.50;;
22298;SDS011;11317;51.072;17.036;2022-07-29T02:05:35;4.55;;;1.98;;
22298;SDS011;11317;51.072;17.036;2022-07-29T02:08:04;4.63;;;1.75;;
22298;SDS011;11317;51.072;17.036;2022-07-29T02:10:32;3.80;;;1.75;;
22298;SDS011;11317;51.072;17.036;2022-07-29T02:12:59;2.30;;;2.10;;
22298;SDS011;11317;51.072;17.036;2022-07-29T02:15:29;4.20;;;2.00;;
22298;SDS011;11317;51.072;17.036;2022-07-29T02:18:14;5.40;;;2.00;;
22298;SDS011;11317;51.072;17.036;2022-07-29T02:20:43;4.43;;;1.83;;
22298;SDS011;11317;51.072;17.036;2022-07-29T02:23:12;2.30;;;2.00;;
22298;SDS011;11317;51.072;17.036;2022-07-29T02:25:38;3.47;;;1.98;;
22298;SDS011;11317;51.072;17.036;2022-07-29T02:28:07;3.92;;;2.05;;
22298;SDS011;11317;51.072;17.036;2022-07-29T02:30:33;3.25;;;1.95;;
22298;SDS011;11317;51.072;17.036;2022-07-29T02:33:03;3.30;;;2.17;;
22298;SDS011;11317;51.072;17.036;2022-07-29T02:35:30;3.75;;;2.22;;
22298;SDS011;11317;51.072;17.036;2022-07-29T02:37:57;4.15;;;2.03;;
22298;SDS011;11317;51.072;17.036;2022-07-29T02:40:42;4.38;;;2.38;;
22298;SDS011;11317;51.072;17.036;2022-07-29T02:43:08;5.30;;;1.80;;
22298;SDS011;11317;51.072;17.036;2022-07-29T02:45:35;5.72;;;1.80;;
22298;SDS011;11317;51.072;17.036;2022-07-29T02:48:04;2.10;;;1.73;;
22298;SDS011;11317;51.072;17.036;2022-07-29T02:50:37;6.67;;;2.07;;
22298;SDS011;11317;51.072;17.036;2022-07-29T02:53:11;6.00;;;2.13;;
22298;SDS011;11317;51.072;17.036;2022-07-29T02:56:00;4.43;;;2.10;;
22298;SDS011;11317;51.072;17.036;2022-07-29T02:58:32;3.85;;;1.95;;
22298;SDS011;11317;51.072;17.036;2022-07-29T03:01:25;6.10;;;2.43;;
22298;SDS011;11317;51.072;17.036;2022-07-29T03:03:55;2.33;;;1.95;;
22298;SDS011;11317;51.072;17.036;2022-07-29T03:06:22;2.60;;;1.98;;
22298;SDS011;11317;51.072;17.036;2022-07-29T03:08:50;2.72;;;1.90;;
22298;SDS011;11317;51.072;17.036;2022-07-29T03:11:16;3.35;;;1.88;;
22298;SDS011;11317;51.072;17.036;2022-07-29T03:13:42;3.92;;;2.05;;
22298;SDS011;11317;51.072;17.036;2022-07-29T03:16:09;3.88;;;1.75;;
22298;SDS011;11317;51.072;17.036;2022-07-29T03:18:35;3.67;;;2.35;;
22298;SDS011;11317;51.072;17.036;2022-07-29T03:21:02;4.07;;;1.90;;
22298;SDS011;11317;51.072;17.036;2022-07-29T03:23:28;2.80;;;1.90;;
22298;SDS011;11317;51.072;17.036;2022-07-29T03:25:54;4.25;;;2.00;;
22298;SDS011;11317;51.072;17.036;2022-07-29T03:28:20;2.45;;;1.90;;
22298;SDS011;11317;51.072;17.036;2022-07-29T03:30:47;3.80;;;2.25;;
22298;SDS011;11317;51.072;17.036;2022-07-29T03:33:13;5.63;;;2.25;;
22298;SDS011;11317;51.072;17.036;2022-07-29T03:35:39;2.63;;;2.25;;
22298;SDS011;11317;51.072;17.036;2022-07-29T03:38:05;2.72;;;2.10;;
22298;SDS011;11317;51.072;17.036;2022-07-29T03:40:48;3.63;;;2.20;;
22298;SDS011;11317;51.072;17.036;2022-07-29T03:43:17;3.50;;;1.85;;
22298;SDS011;11317;51.072;17.036;2022-07-29T03:45:45;3.50;;;2.20;;
22298;SDS011;11317;51.072;17.036;2022-07-29T03:48:15;3.53;;;2.40;;
22298;SDS011;11317;51.072;17.036;2022-07-29T03:50:42;3.38;;;2.20;;
22298;SDS011;11317;51.072;17.036;2022-07-29T03:53:09;7.53;;;2.20;;
22298;SDS011;11317;51.072;17.036;2022-07-29T03:55:43;4.55;;;2.50;;
22298;SDS011;11317;51.072;17.036;2022-07-29T03:58:12;3.40;;;2.20;;
22298;SDS011;11317;51.072;17.036;2022-07-29T04:00:39;4.22;;;2.00;;
22298;SDS011;11317;51.072;17.036;2022-07-29T04:03:05;5.70;;;2.30;;
22298;SDS011;11317;51.072;17.036;2022-07-29T04:05:31;3.08;;;2.10;;
22298;SDS011;11317;51.072;17.036;2022-07-29T04:07:57;2.22;;;1.70;;
22298;SDS011;11317;51.072;17.036;2022-07-29T04:10:24;3.78;;;1.77;;
22298;SDS011;11317;51.072;17.036;2022-07-29T04:12:50;4.63;;;2.05;;
22298;SDS011;11317;51.072;17.036;2022-07-29T04:15:16;5.80;;;2.30;;
22298;SDS011;11317;51.072;17.036;2022-07-29T04:17:42;3.55;;;2.20;;
22298;SDS011;11317;51.072;17.036;2022-07-29T04:20:08;6.18;;;2.15;;
22298;SDS011;11317;51.072;17.036;2022-07-29T04:22:34;3.80;;;2.13;;
22298;SDS011;11317;51.072;17.036;2022-07-29T04:25:00;5.10;;;2.15;;
22298;SDS011;11317;51.072;17.036;2022-07-29T04:27:26;3.95;;;2.40;;
22298;SDS011;11317;51.072;17.036;2022-07-29T04:29:52;2.83;;;2.05;;
22298;SDS011;11317;51.072;17.036;2022-07-29T04:32:18;5.07;;;1.98;;
22298;SDS011;11317;51.072;17.036;2022-07-29T04:34:46;3.20;;;2.35;;
22298;SDS011;11317;51.072;17.036;2022-07-29T04:37:11;4.50;;;2.00;;
22298;SDS011;11317;51.072;17.036;2022-07-29T04:39:38;5.95;;;2.53;;
22298;SDS011;11317;51.072;17.036;2022-07-29T04:42:04;5.25;;;2.47;;
22298;SDS011;11317;51.072;17.036;2022-07-29T04:44:30;4.03;;;2.20;;
22298;SDS011;11317;51.072;17.036;2022-07-29T04:46:56;5.50;;;2.00;;
22298;SDS011;11317;51.072;17.036;2022-07-29T04:49:22;2.90;;;1.77;;
22298;SDS011;11317;51.072;17.036;2022-07-29T04:51:48;2.97;;;1.60;;
22298;SDS011;11317;51.072;17.036;2022-07-29T04:54:14;3.05;;;1.95;;
22298;SDS011;11317;51.072;17.036;2022-07-29T04:56:40;5.03;;;2.22;;
22298;SDS011;11317;51.072;17.036;2022-07-29T04:59:06;4.15;;;2.03;;
22298;SDS011;11317;51.072;17.036;2022-07-29T05:01:32;3.42;;;1.88;;
22298;SDS011;11317;51.072;17.036;2022-07-29T05:03:59;3.38;;;2.00;;
22298;SDS011;11317;51.072;17.036;2022-07-29T05:06:25;2.28;;;1.90;;
22298;SDS011;11317;51.072;17.036;2022-07-29T05:08:51;4.47;;;2.25;;
22298;SDS011;11317;51.072;17.036;2022-07-29T05:11:17;2.30;;;1.50;;
22298;SDS011;11317;51.072;17.036;2022-07-29T05:13:43;3.05;;;1.80;;
22298;SDS011;11317;51.072;17.036;2022-07-29T05:16:09;3.00;;;1.70;;
22298;SDS011;11317;51.072;17.036;2022-07-29T05:18:35;1.92;;;1.60;;
22298;SDS011;11317;51.072;17.036;2022-07-29T05:21:01;3.42;;;1.77;;
22298;SDS011;11317;51.072;17.036;2022-07-29T05:23:27;2.20;;;1.60;;
22298;SDS011;11317;51.072;17.036;2022-07-29T05:25:53;4.15;;;1.98;;
22298;SDS011;11317;51.072;17.036;2022-07-29T05:28:19;4.18;;;1.83;;
22298;SDS011;11317;51.072;17.036;2022-07-29T05:30:45;3.13;;;1.70;;
22298;SDS011;11317;51.072;17.036;2022-07-29T05:33:11;3.40;;;1.50;;
22298;SDS011;11317;51.072;17.036;2022-07-29T05:35:37;2.78;;;1.58;;
22298;SDS011;11317;51.072;17.036;2022-07-29T05:38:03;6.55;;;2.20;;
22298;SDS011;11317;51.072;17.036;2022-07-29T05:40:32;1.98;;;1.50;;
22298;SDS011;11317;51.072;17.036;2022-07-29T05:42:59;3.58;;;1.92;;
22298;SDS011;11317;51.072;17.036;2022-07-29T05:45:25;2.60;;;1.88;;
22298;SDS011;11317;51.072;17.036;2022-07-29T05:47:51;3.22;;;1.92;;
22298;SDS011;11317;51.072;17.036;2022-07-29T05:50:20;2.05;;;1.63;;
22298;SDS011;11317;51.072;17.036;2022-07-29T05:52:46;2.58;;;1.55;;
22298;SDS011;11317;51.072;17.036;2022-07-29T05:55:12;3.80;;;1.75;;
22298;SDS011;11317;51.072;17.036;2022-07-29T05:57:38;2.83;;;1.70;;
22298;SDS011;11317;51.072;17.036;2022-07-29T06:00:03;4.03;;;1.70;;
22298;SDS011;11317;51.072;17.036;2022-07-29T06:02:29;2.35;;;1.60;;
22298;SDS011;11317;51.072;17.036;2022-07-29T06:04:55;4.35;;;1.80;;
22298;SDS011;11317;51.072;17.036;2022-07-29T06:07:21;3.05;;;1.98;;
22298;SDS011;11317;51.072;17.036;2022-07-29T06:09:48;3.10;;;1.70;;
22298;SDS011;11317;51.072;17.036;2022-07-29T06:12:13;3.08;;;1.40;;
22298;SDS011;11317;51.072;17.036;2022-07-29T06:14:40;3.20;;;1.58;;
22298;SDS011;11317;51.072;17.036;2022-07-29T06:17:05;4.47;;;1.65;;
22298;SDS011;11317;51.072;17.036;2022-07-29T06:19:33;3.65;;;1.50;;
22298;SDS011;11317;51.072;17.036;2022-07-29T06:21:59;3.03;;;1.58;;
22298;SDS011;11317;51.072;17.036;2022-07-29T06:24:26;5.85;;;2.00;;
22298;SDS011;11317;51.072;17.036;2022-07-29T06:26:52;2.42;;;1.80;;
22298;SDS011;11317;51.072;17.036;2022-07-29T06:29:18;2.00;;;1.60;;
22298;SDS011;11317;51.072;17.036;2022-07-29T06:31:44;2.80;;;1.45;;
22298;SDS011;11317;51.072;17.036;2022-07-29T06:34:10;5.05;;;1.60;;
22298;SDS011;11317;51.072;17.036;2022-07-29T06:36:36;4.38;;;1.65;;
22298;SDS011;11317;51.072;17.036;2022-07-29T06:39:05;2.83;;;1.70;;
22298;SDS011;11317;51.072;17.036;2022-07-29T06:41:32;3.55;;;1.70;;
22298;SDS011;11317;51.072;17.036;2022-07-29T06:43:58;3.25;;;1.58;;
22298;SDS011;11317;51.072;17.036;2022-07-29T06:46:24;2.53;;;1.38;;
22298;SDS011;11317;51.072;17.036;2022-07-29T06:48:51;3.75;;;1.55;;
22298;SDS011;11317;51.072;17.036;2022-07-29T06:51:16;2.13;;;1.50;;
22298;SDS011;11317;51.072;17.036;2022-07-29T06:53:43;1.95;;;1.33;;
22298;SDS011;11317;51.072;17.036;2022-07-29T06:56:09;3.03;;;1.60;;
22298;SDS011;11317;51.072;17.036;2022-07-29T06:58:38;2.92;;;1.25;;
22298;SDS011;11317;51.072;17.036;2022-07-29T07:01:05;2.78;;;1.52;;
22298;SDS011;11317;51.072;17.036;2022-07-29T07:03:32;2.45;;;1.38;;
22298;SDS011;11317;51.072;17.036;2022-07-29T07:05:58;1.75;;;1.38;;
22298;SDS011;11317;51.072;17.036;2022-07-29T07:08:24;4.72;;;1.00;;
22298;SDS011;11317;51.072;17.036;2022-07-29T07:10:50;2.15;;;1.08;;
22298;SDS011;11317;51.072;17.036;2022-07-29T07:13:16;2.17;;;1.20;;
22298;SDS011;11317;51.072;17.036;2022-07-29T07:15:42;2.30;;;1.25;;
22298;SDS011;11317;51.072;17.036;2022-07-29T07:18:08;3.42;;;1.33;;
22298;SDS011;11317;51.072;17.036;2022-07-29T07:20:34;2.63;;;1.15;;
22298;SDS011;11317;51.072;17.036;2022-07-29T07:23:00;1.67;;;1.13;;
22298;SDS011;11317;51.072;17.036;2022-07-29T07:25:26;2.72;;;1.20;;
22298;SDS011;11317;51.072;17.036;2022-07-29T07:27:52;1.80;;;1.30;;
22298;SDS011;11317;51.072;17.036;2022-07-29T07:30:18;3.03;;;1.40;;
22298;SDS011;11317;51.072;17.036;2022-07-29T07:32:44;2.38;;;1.50;;
22298;SDS011;11317;51.072;17.036;2022-07-29T07:35:10;3.55;;;1.42;;
22298;SDS011;11317;51.072;17.036;2022-07-29T07:37:36;2.75;;;1.40;;
22298;SDS011;11317;51.072;17.036;2022-07-29T07:40:03;2.60;;;1.42;;
22298;SDS011;11317;51.072;17.036;2022-07-29T07:42:29;4.72;;;1.38;;
22298;SDS011;11317;51.072;17.036;2022-07-29T07:44:55;2.83;;;1.40;;
22298;SDS011;11317;51.072;17.036;2022-07-29T07:47:21;2.13;;;1.05;;
22298;SDS011;11317;51.072;17.036;2022-07-29T07:49:52;2.70;;;1.20;;
22298;SDS011;11317;51.072;17.036;2022-07-29T07:52:19;1.23;;;1.13;;
22298;SDS011;11317;51.072;17.036;2022-07-29T07:54:45;2.85;;;1.48;;
22298;SDS011;11317;51.072;17.036;2022-07-29T07:57:12;1.75;;;1.00;;
22298;SDS011;11317;51.072;17.036;2022-07-29T07:59:38;2.53;;;1.10;;
22298;SDS011;11317;51.072;17.036;2022-07-29T08:02:04;2.45;;;1.55;;
22298;SDS011;11317;51.072;17.036;2022-07-29T08:04:30;2.88;;;1.33;;
22298;SDS011;11317;51.072;17.036;2022-07-29T08:06:56;1.52;;;1.17;;
22298;SDS011;11317;51.072;17.036;2022-07-29T08:09:23;4.03;;;1.23;;
22298;SDS011;11317;51.072;17.036;2022-07-29T08:11:50;4.25;;;1.40;;
22298;SDS011;11317;51.072;17.036;2022-07-29T08:14:16;2.92;;;1.63;;
22298;SDS011;11317;51.072;17.036;2022-07-29T08:16:42;3.13;;;1.35;;
22298;SDS011;11317;51.072;17.036;2022-07-29T08:19:08;2.47;;;1.20;;
22298;SDS011;11317;51.072;17.036;2022-07-29T08:21:35;2.22;;;1.40;;
22298;SDS011;11317;51.072;17.036;2022-07-29T08:24:02;2.40;;;1.38;;
22298;SDS011;11317;51.072;17.036;2022-07-29T08:26:47;2.80;;;1.40;;
22298;SDS011;11317;51.072;17.036;2022-07-29T08:29:12;1.50;;;1.23;;
22298;SDS011;11317;51.072;17.036;2022-07-29T08:31:38;3.30;;;1.30;;
22298;SDS011;11317;51.072;17.036;2022-07-29T08:34:05;2.03;;;1.40;;
22298;SDS011;11317;51.072;17.036;2022-07-29T08:36:31;2.90;;;1.60;;
22298;SDS011;11317;51.072;17.036;2022-07-29T08:38:58;3.05;;;1.33;;
22298;SDS011;11317;51.072;17.036;2022-07-29T08:41:24;5.95;;;1.60;;
22298;SDS011;11317;51.072;17.036;2022-07-29T08:43:51;2.90;;;1.35;;
22298;SDS011;11317;51.072;17.036;2022-07-29T08:46:18;1.80;;;1.40;;
22298;SDS011;11317;51.072;17.036;2022-07-29T08:48:45;2.50;;;1.88;;
22298;SDS011;11317;51.072;17.036;2022-07-29T08:51:16;2.63;;;1.50;;
22298;SDS011;11317;51.072;17.036;2022-07-29T08:53:44;1.52;;;1.30;;
22298;SDS011;11317;51.072;17.036;2022-07-29T08:56:13;3.00;;;1.48;;
22298;SDS011;11317;51.072;17.036;2022-07-29T08:58:40;1.92;;;1.33;;
22298;SDS011;11317;51.072;17.036;2022-07-29T09:01:06;3.08;;;1.38;;
22298;SDS011;11317;51.072;17.036;2022-07-29T09:03:33;3.38;;;1.48;;
22298;SDS011;11317;51.072;17.036;2022-07-29T09:06:01;4.18;;;1.48;;
22298;SDS011;11317;51.072;17.036;2022-07-29T09:08:28;1.90;;;1.50;;
22298;SDS011;11317;51.072;17.036;2022-07-29T09:10:54;1.88;;;1.63;;
22298;SDS011;11317;51.072;17.036;2022-07-29T09:13:25;4.95;;;1.80;;
22298;SDS011;11317;51.072;17.036;2022-07-29T09:15:51;1.42;;;1.33;;
22298;SDS011;11317;51.072;17.036;2022-07-29T09:18:36;9.18;;;8.05;;
22298;SDS011;11317;51.072;17.036;2022-07-29T09:21:07;10.80;;;8.65;;
22298;SDS011;11317;51.072;17.036;2022-07-29T09:24:06;13.05;;;11.30;;
22298;SDS011;11317;51.072;17.036;2022-07-29T09:26:38;8.13;;;6.60;;
22298;SDS011;11317;51.072;17.036;2022-07-29T09:29:12;3.40;;;3.10;;
22298;SDS011;11317;51.072;17.036;2022-07-29T09:31:41;4.63;;;2.08;;
22298;SDS011;11317;51.072;17.036;2022-07-29T09:34:09;5.38;;;2.17;;
22298;SDS011;11317;51.072;17.036;2022-07-29T09:36:47;3.05;;;1.50;;
22298;SDS011;11317;51.072;17.036;2022-07-29T09:39:14;3.35;;;1.92;;
22298;SDS011;11317;51.072;17.036;2022-07-29T09:42:00;4.20;;;1.70;;
22298;SDS011;11317;51.072;17.036;2022-07-29T09:44:28;1.85;;;1.70;;
22298;SDS011;11317;51.072;17.036;2022-07-29T09:47:06;2.65;;;1.80;;
22298;SDS011;11317;51.072;17.036;2022-07-29T09:49:33;2.08;;;1.80;;
22298;SDS011;11317;51.072;17.036;2022-07-29T09:52:04;3.97;;;1.75;;
22298;SDS011;11317;51.072;17.036;2022-07-29T09:54:31;1.73;;;1.48;;
22298;SDS011;11317;51.072;17.036;2022-07-29T09:57:04;3.57;;;1.60;;
22298;SDS011;11317;51.072;17.036;2022-07-29T09:59:37;1.80;;;1.70;;
22298;SDS011;11317;51.072;17.036;2022-07-29T10:02:10;4.68;;;1.10;;
22298;SDS011;11317;51.072;17.036;2022-07-29T10:04:41;4.90;;;1.80;;
22298;SDS011;11317;51.072;17.036;2022-07-29T10:07:07;2.97;;;1.80;;
22298;SDS011;11317;51.072;17.036;2022-07-29T10:09:34;8.52;;;1.80;;
22298;SDS011;11317;51.072;17.036;2022-07-29T10:12:07;4.80;;;1.90;;
22298;SDS011;11317;51.072;17.036;2022-07-29T10:14:35;3.03;;;1.80;;
22298;SDS011;11317;51.072;17.036;2022-07-29T10:17:02;2.92;;;1.80;;
22298;SDS011;11317;51.072;17.036;2022-07-29T10:19:29;3.80;;;1.80;;
22298;SDS011;11317;51.072;17.036;2022-07-29T10:21:59;3.40;;;1.80;;
22298;SDS011;11317;51.072;17.036;2022-07-29T10:24:27;3.35;;;1.98;;
22298;SDS011;11317;51.072;17.036;2022-07-29T10:26:54;2.25;;;1.65;;
22298;SDS011;11317;51.072;17.036;2022-07-29T10:29:21;2.50;;;1.90;;
22298;SDS011;11317;51.072;17.036;2022-07-29T10:31:49;2.53;;;1.70;;
22298;SDS011;11317;51.072;17.036;2022-07-29T10:34:23;2.50;;;1.95;;
22298;SDS011;11317;51.072;17.036;2022-07-29T10:40:00;2.97;;;1.40;;
22298;SDS011;11317;51.072;17.036;2022-07-29T10:42:57;1.80;;;1.52;;
22298;SDS011;11317;51.072;17.036;2022-07-29T10:45:29;4.23;;;2.10;;
22298;SDS011;11317;51.072;17.036;2022-07-29T10:48:04;3.60;;;2.08;;
22298;SDS011;11317;51.072;17.036;2022-07-29T10:51:06;1.90;;;1.80;;
22298;SDS011;11317;51.072;17.036;2022-07-29T10:56:31;2.50;;;1.83;;
22298;SDS011;11317;51.072;17.036;2022-07-29T11:01:45;2.90;;;1.90;;
22298;SDS011;11317;51.072;17.036;2022-07-29T11:04:12;3.00;;;2.20;;
22298;SDS011;11317;51.072;17.036;2022-07-29T11:09:25;2.45;;;2.00;;
22298;SDS011;11317;51.072;17.036;2022-07-29T11:11:51;1.65;;;1.52;;
22298;SDS011;11317;51.072;17.036;2022-07-29T11:14:18;2.80;;;2.10;;
22298;SDS011;11317;51.072;17.036;2022-07-29T11:17:04;2.70;;;2.20;;
22298;SDS011;11317;51.072;17.036;2022-07-29T11:19:32;2.22;;;1.80;;
22298;SDS011;11317;51.072;17.036;2022-07-29T11:21:58;3.40;;;1.95;;
22298;SDS011;11317;51.072;17.036;2022-07-29T11:29:50;2.77;;;2.03;;
22298;SDS011;11317;51.072;17.036;2022-07-29T11:32:16;2.63;;;1.73;;
22298;SDS011;11317;51.072;17.036;2022-07-29T11:34:44;2.20;;;1.80;;
22298;SDS011;11317;51.072;17.036;2022-07-29T11:47:26;2.28;;;1.50;;
22298;SDS011;11317;51.072;17.036;2022-07-29T11:49:55;7.13;;;1.90;;
22298;SDS011;11317;51.072;17.036;2022-07-29T11:52:22;3.28;;;1.88;;
22298;SDS011;11317;51.072;17.036;2022-07-29T11:54:49;2.47;;;1.88;;
22298;SDS011;11317;51.072;17.036;2022-07-29T11:57:15;2.58;;;1.90;;
22298;SDS011;11317;51.072;17.036;2022-07-29T11:59:43;3.53;;;1.75;;
22298;SDS011;11317;51.072;17.036;2022-07-29T12:02:10;3.35;;;2.53;;
22298;SDS011;11317;51.072;17.036;2022-07-29T12:04:53;5.03;;;3.50;;
22298;SDS011;11317;51.072;17.036;2022-07-29T12:07:29;1.88;;;1.77;;
22298;SDS011;11317;51.072;17.036;2022-07-29T12:09:56;1.92;;;1.63;;
22298;SDS011;11317;51.072;17.036;2022-07-29T12:12:22;3.00;;;1.58;;
22298;SDS011;11317;51.072;17.036;2022-07-29T12:14:48;5.80;;;1.85;;
22298;SDS011;11317;51.072;17.036;2022-07-29T12:17:25;3.05;;;2.17;;
22298;SDS011;11317;51.072;17.036;2022-07-29T12:19:55;2.80;;;1.90;;
22298;SDS011;11317;51.072;17.036;2022-07-29T12:24:52;1.90;;;1.63;;
22298;SDS011;11317;51.072;17.036;2022-07-29T12:27:18;5.97;;;2.05;;
22298;SDS011;11317;51.072;17.036;2022-07-29T12:29:44;2.67;;;2.00;;
22298;SDS011;11317;51.072;17.036;2022-07-29T12:32:20;4.30;;;1.80;;
22298;SDS011;11317;51.072;17.036;2022-07-29T12:34:45;2.65;;;2.00;;
22298;SDS011;11317;51.072;17.036;2022-07-29T12:37:11;2.28;;;1.95;;
22298;SDS011;11317;51.072;17.036;2022-07-29T12:39:38;2.45;;;1.80;;
22298;SDS011;11317;51.072;17.036;2022-07-29T12:42:14;6.07;;;2.08;;
22298;SDS011;11317;51.072;17.036;2022-07-29T12:44:44;4.07;;;2.03;;
22298;SDS011;11317;51.072;17.036;2022-07-29T12:47:11;4.93;;;2.13;;
22298;SDS011;11317;51.072;17.036;2022-07-29T12:49:37;4.43;;;2.28;;
22298;SDS011;11317;51.072;17.036;2022-07-29T12:55:07;3.10;;;2.03;;
22298;SDS011;11317;51.072;17.036;2022-07-29T12:57:43;2.67;;;2.00;;
22298;SDS011;11317;51.072;17.036;2022-07-29T13:00:12;3.63;;;2.00;;
22298;SDS011;11317;51.072;17.036;2022-07-29T13:02:39;5.80;;;2.15;;
22298;SDS011;11317;51.072;17.036;2022-07-29T13:05:07;4.93;;;2.35;;
22298;SDS011;11317;51.072;17.036;2022-07-29T13:07:34;3.17;;;1.63;;
22298;SDS011;11317;51.072;17.036;2022-07-29T13:10:17;2.50;;;1.70;;
22298;SDS011;11317;51.072;17.036;2022-07-29T13:15:33;3.13;;;2.13;;
22298;SDS011;11317;51.072;17.036;2022-07-29T13:17:59;3.17;;;2.10;;
22298;SDS011;11317;51.072;17.036;2022-07-29T13:20:26;3.45;;;2.20;;
22298;SDS011;11317;51.072;17.036;2022-07-29T13:22:55;6.22;;;2.25;;
22298;SDS011;11317;51.072;17.036;2022-07-29T13:25:31;2.45;;;2.10;;
22298;SDS011;11317;51.072;17.036;2022-07-29T13:27:57;2.67;;;2.08;;
22298;SDS011;11317;51.072;17.036;2022-07-29T13:30:24;3.33;;;2.20;;
22298;SDS011;11317;51.072;17.036;2022-07-29T13:32:51;4.45;;;2.10;;
22298;SDS011;11317;51.072;17.036;2022-07-29T13:35:17;2.40;;;2.20;;
22298;SDS011;11317;51.072;17.036;2022-07-29T13:37:44;3.67;;;2.30;;
22298;SDS011;11317;51.072;17.036;2022-07-29T13:40:10;2.17;;;1.98;;
22298;SDS011;11317;51.072;17.036;2022-07-29T13:42:36;3.38;;;2.20;;
22298;SDS011;11317;51.072;17.036;2022-07-29T13:45:03;5.20;;;2.22;;
22298;SDS011;11317;51.072;17.036;2022-07-29T13:47:29;3.45;;;2.30;;
22298;SDS011;11317;51.072;17.036;2022-07-29T13:49:55;3.38;;;1.95;;
22298;SDS011;11317;51.072;17.036;2022-07-29T13:52:21;2.70;;;1.75;;
22298;SDS011;11317;51.072;17.036;2022-07-29T13:54:47;4.13;;;2.30;;
22298;SDS011;11317;51.072;17.036;2022-07-29T13:57:13;2.40;;;1.83;;
22298;SDS011;11317;51.072;17.036;2022-07-29T13:59:40;2.35;;;2.17;;
22298;SDS011;11317;51.072;17.036;2022-07-29T14:02:07;2.80;;;2.30;;
22298;SDS011;11317;51.072;17.036;2022-07-29T14:04:33;3.72;;;1.80;;
22298;SDS011;11317;51.072;17.036;2022-07-29T14:07:00;2.08;;;1.88;;
22298;SDS011;11317;51.072;17.036;2022-07-29T14:09:26;2.58;;;2.20;;
22298;SDS011;11317;51.072;17.036;2022-07-29T14:11:52;3.03;;;2.42;;
22298;SDS011;11317;51.072;17.036;2022-07-29T14:14:18;2.78;;;1.95;;
22298;SDS011;11317;51.072;17.036;2022-07-29T14:16:44;3.78;;;2.17;;
22298;SDS011;11317;51.072;17.036;2022-07-29T14:19:10;3.15;;;2.20;;
22298;SDS011;11317;51.072;17.036;2022-07-29T14:21:36;5.28;;;2.05;;
22298;SDS011;11317;51.072;17.036;2022-07-29T14:24:03;3.75;;;2.33;;
22298;SDS011;11317;51.072;17.036;2022-07-29T14:26:29;2.10;;;1.90;;
22298;SDS011;11317;51.072;17.036;2022-07-29T14:28:54;3.28;;;2.40;;
22298;SDS011;11317;51.072;17.036;2022-07-29T14:31:20;2.65;;;2.20;;
22298;SDS011;11317;51.072;17.036;2022-07-29T14:33:46;2.28;;;2.08;;
22298;SDS011;11317;51.072;17.036;2022-07-29T14:36:12;5.60;;;2.30;;
22298;SDS011;11317;51.072;17.036;2022-07-29T14:38:38;2.55;;;2.05;;
22298;SDS011;11317;51.072;17.036;2022-07-29T14:41:05;2.67;;;2.00;;
22298;SDS011;11317;51.072;17.036;2022-07-29T14:43:33;5.13;;;2.38;;
22298;SDS011;11317;51.072;17.036;2022-07-29T14:45:59;4.53;;;2.47;;
22298;SDS011;11317;51.072;17.036;2022-07-29T14:48:26;2.83;;;2.20;;
22298;SDS011;11317;51.072;17.036;2022-07-29T14:50:51;3.80;;;2.08;;
22298;SDS011;11317;51.072;17.036;2022-07-29T14:53:17;4.22;;;2.40;;
22298;SDS011;11317;51.072;17.036;2022-07-29T14:55:43;2.45;;;2.25;;
22298;SDS011;11317;51.072;17.036;2022-07-29T14:58:09;2.65;;;2.15;;
22298;SDS011;11317;51.072;17.036;2022-07-29T15:00:35;3.40;;;2.35;;
22298;SDS011;11317;51.072;17.036;2022-07-29T15:03:03;3.25;;;2.00;;
22298;SDS011;11317;51.072;17.036;2022-07-29T15:05:30;7.85;;;2.38;;
22298;SDS011;11317;51.072;17.036;2022-07-29T15:07:56;2.25;;;2.05;;
22298;SDS011;11317;51.072;17.036;2022-07-29T15:10:23;2.55;;;2.13;;
22298;SDS011;11317;51.072;17.036;2022-07-29T15:12:51;2.92;;;2.33;;
22298;SDS011;11317;51.072;17.036;2022-07-29T15:15:17;2.08;;;1.77;;
22298;SDS011;11317;51.072;17.036;2022-07-29T15:17:43;4.13;;;2.40;;
22298;SDS011;11317;51.072;17.036;2022-07-29T15:20:09;2.40;;;2.20;;
22298;SDS011;11317;51.072;17.036;2022-07-29T15:22:36;5.95;;;2.20;;
22298;SDS011;11317;51.072;17.036;2022-07-29T15:25:03;4.55;;;2.50;;